createdAt,value
2023-02-07T00:01:20.086Z,15.73
2023-02-07T00:03:48.331Z,19.73
2023-02-07T00:06:29.931Z,18.20
2023-02-07T00:08:58.645Z,16.37
2023-02-07T00:11:25.960Z,18.50
2023-02-07T00:13:55.659Z,15.55
2023-02-07T00:16:23.820Z,15.00
2023-02-07T00:18:52.484Z,17.13
2023-02-07T00:21:23.193Z,15.80
2023-02-07T00:23:50.678Z,14.33
2023-02-07T00:26:18.829Z,14.27
2023-02-07T00:28:45.901Z,13.53
2023-02-07T00:31:20.436Z,15.83
2023-02-07T00:33:50.707Z,20.37
2023-02-07T00:36:20.557Z,14.37
2023-02-07T00:38:48.300Z,17.07
2023-02-07T00:41:18.452Z,15.40
2023-02-07T00:43:46.962Z,18.57
2023-02-07T00:46:14.194Z,14.27
2023-02-07T00:48:44.708Z,16.37
2023-02-07T00:51:13.954Z,14.63
2023-02-07T00:53:42.066Z,19.20
2023-02-07T00:56:09.243Z,19.57
2023-02-07T00:58:36.534Z,22.13
2023-02-07T01:01:04.593Z,16.50
2023-02-07T01:03:31.977Z,16.43
2023-02-07T01:05:59.053Z,18.90
2023-02-07T01:08:25.800Z,17.80
2023-02-07T01:10:52.713Z,16.90
2023-02-07T01:13:19.860Z,16.67
2023-02-07T01:15:48.617Z,21.57
2023-02-07T01:18:16.249Z,16.97
2023-02-07T01:20:50.784Z,21.27
2023-02-07T01:23:19.928Z,23.77
2023-02-07T01:25:47.090Z,20.73
2023-02-07T01:28:15.194Z,24.50
2023-02-07T01:30:45.572Z,20.07
2023-02-07T01:33:12.584Z,24.00
2023-02-07T01:38:09.124Z,24.07
2023-02-07T01:43:19.086Z,20.60
2023-02-07T01:45:45.786Z,23.43
2023-02-07T01:48:44.768Z,22.57
2023-02-07T01:51:21.653Z,21.43
2023-02-07T01:53:49.131Z,21.27
2023-02-07T01:56:30.919Z,22.60
2023-02-07T01:58:58.971Z,22.17
2023-02-07T02:01:26.931Z,28.63
2023-02-07T02:03:57.347Z,27.17
2023-02-07T02:06:30.863Z,25.33
2023-02-07T02:09:03.202Z,26.63
2023-02-07T02:11:44.844Z,27.77
2023-02-07T02:14:31.117Z,23.70
2023-02-07T02:17:04.324Z,23.87
2023-02-07T02:19:47.464Z,29.30
2023-02-07T02:22:44.803Z,32.33
2023-02-07T02:25:44.819Z,24.97
2023-02-07T02:28:17.663Z,23.10
2023-02-07T02:30:53.949Z,31.20
2023-02-07T02:33:26.192Z,24.80
2023-02-07T02:36:29.232Z,21.23
2023-02-07T02:39:15.066Z,27.53
2023-02-07T02:41:44.964Z,32.17
2023-02-07T02:44:20.863Z,28.73
2023-02-07T02:46:49.056Z,25.97
2023-02-07T02:49:17.359Z,28.43
2023-02-07T02:51:43.959Z,29.30
2023-02-07T02:54:32.337Z,27.57
2023-02-07T02:57:27.743Z,30.63
2023-02-07T03:00:07.137Z,18.50
2023-02-07T03:02:44.900Z,30.70
2023-02-07T03:05:11.780Z,28.80
2023-02-07T03:07:41.546Z,25.80
2023-02-07T03:10:20.113Z,32.00
2023-02-07T03:13:20.847Z,36.43
2023-02-07T03:16:04.621Z,29.17
2023-02-07T03:18:44.851Z,30.50
2023-02-07T03:21:27.455Z,25.27
2023-02-07T03:23:58.635Z,33.63
2023-02-07T03:26:27.091Z,29.80
2023-02-07T03:28:57.039Z,30.17
2023-02-07T03:31:27.325Z,27.00
2023-02-07T03:33:59.799Z,37.77
2023-02-07T03:36:35.764Z,32.07
2023-02-07T03:39:02.865Z,31.63
2023-02-07T03:41:44.882Z,29.00
2023-02-07T03:44:15.055Z,27.97
2023-02-07T03:46:42.227Z,29.07
2023-02-07T03:49:09.449Z,26.37
2023-02-07T03:51:36.576Z,35.07
2023-02-07T03:54:04.063Z,27.73
2023-02-07T03:56:30.793Z,32.10
2023-02-07T03:58:57.485Z,32.13
2023-02-07T04:01:24.692Z,33.57
2023-02-07T04:03:51.394Z,26.17
2023-02-07T04:06:18.947Z,31.90
2023-02-07T04:08:45.747Z,33.10
2023-02-07T04:11:12.836Z,37.20
2023-02-07T04:13:39.597Z,27.13
2023-02-07T04:16:07.242Z,32.63
2023-02-07T04:18:34.637Z,32.73
2023-02-07T04:21:04.604Z,32.20
2023-02-07T04:23:31.912Z,36.17
2023-02-07T04:25:58.944Z,34.73
2023-02-07T04:28:26.309Z,32.27
2023-02-07T04:30:53.564Z,35.30
2023-02-07T04:33:22.743Z,39.80
2023-02-07T04:35:57.152Z,35.30
2023-02-07T04:38:25.992Z,35.77
2023-02-07T04:40:53.080Z,23.67
2023-02-07T04:43:20.317Z,34.80
2023-02-07T04:45:48.411Z,35.57
2023-02-07T04:48:15.562Z,31.97
2023-02-07T04:50:42.507Z,38.00
2023-02-07T04:53:09.215Z,33.73
2023-02-07T04:55:37.778Z,37.10
2023-02-07T04:58:05.852Z,33.07
2023-02-07T05:00:34.077Z,28.77
2023-02-07T05:03:01.154Z,34.30
2023-02-07T05:05:28.015Z,39.57
2023-02-07T05:07:54.774Z,30.20
2023-02-07T05:10:21.591Z,40.47
2023-02-07T05:12:48.304Z,37.90
2023-02-07T05:15:15.055Z,40.37
2023-02-07T05:17:41.985Z,38.37
2023-02-07T05:20:09.673Z,33.20
2023-02-07T05:22:36.392Z,40.47
2023-02-07T05:25:03.396Z,39.77
2023-02-07T05:27:30.852Z,34.80
2023-02-07T05:29:59.744Z,42.33
2023-02-07T05:32:44.847Z,37.60
2023-02-07T05:35:12.191Z,35.90
2023-02-07T05:37:39.109Z,44.63
2023-02-07T05:40:06.200Z,40.23
2023-02-07T05:42:32.997Z,38.73
2023-02-07T05:44:59.745Z,37.10
2023-02-07T05:47:26.720Z,41.83
2023-02-07T05:49:53.844Z,37.77
2023-02-07T05:52:20.634Z,39.87
2023-02-07T05:54:48.133Z,38.33
2023-02-07T05:57:14.976Z,34.27
2023-02-07T05:59:41.775Z,34.80
2023-02-07T06:02:10.005Z,39.77
2023-02-07T06:04:36.972Z,42.53
2023-02-07T06:07:04.452Z,40.30
2023-02-07T06:09:31.291Z,38.60
2023-02-07T06:11:58.135Z,36.63
2023-02-07T06:14:25.386Z,41.73
2023-02-07T06:16:52.932Z,42.47
2023-02-07T06:19:20.253Z,42.37
2023-02-07T06:21:47.170Z,42.00
2023-02-07T06:24:17.641Z,38.23
2023-02-07T06:26:47.031Z,43.87
2023-02-07T06:29:20.740Z,46.10
2023-02-07T06:31:47.576Z,40.67
2023-02-07T06:34:14.338Z,33.47
2023-02-07T06:36:44.885Z,43.70
2023-02-07T06:39:11.658Z,43.97
2023-02-07T06:41:42.175Z,43.93
2023-02-07T06:44:09.065Z,43.83
2023-02-07T06:46:36.015Z,40.80
2023-02-07T06:49:03.251Z,47.07
2023-02-07T06:51:30.178Z,48.73
2023-02-07T06:53:56.952Z,51.50
2023-02-07T06:56:23.740Z,52.17
2023-02-07T06:58:50.720Z,40.13
2023-02-07T07:01:20.382Z,36.97
2023-02-07T07:03:47.749Z,38.57
2023-02-07T07:06:14.713Z,38.87
2023-02-07T07:08:41.756Z,46.53
2023-02-07T07:11:08.704Z,44.03
2023-02-07T07:13:35.488Z,37.73
2023-02-07T07:16:02.539Z,44.70
2023-02-07T07:18:29.240Z,39.83
2023-02-07T07:20:57.241Z,37.13
2023-02-07T07:23:24.014Z,36.23
2023-02-07T07:25:50.842Z,37.37
2023-02-07T07:28:17.661Z,43.33
2023-02-07T07:30:44.562Z,36.00
2023-02-07T07:33:11.443Z,38.30
2023-02-07T07:35:38.585Z,44.53
2023-02-07T07:38:05.950Z,35.47
2023-02-07T07:40:36.623Z,44.07
2023-02-07T07:43:03.513Z,42.10
2023-02-07T07:45:30.244Z,40.60
2023-02-07T07:47:57.078Z,31.20
2023-02-07T07:50:24.237Z,32.67
2023-02-07T07:52:51.083Z,35.93
2023-02-07T07:55:17.925Z,41.93
2023-02-07T07:57:44.696Z,38.53
2023-02-07T08:00:12.232Z,38.50
2023-02-07T08:02:38.949Z,31.83
2023-02-07T08:05:06.075Z,41.37
2023-02-07T08:07:32.913Z,26.60
2023-02-07T08:09:59.656Z,39.73
2023-02-07T08:12:26.504Z,41.73
2023-02-07T08:14:53.514Z,40.17
2023-02-07T08:17:20.243Z,33.00
2023-02-07T08:19:46.945Z,39.10
2023-02-07T08:22:14.785Z,40.27
2023-02-07T08:24:42.126Z,40.67
2023-02-07T08:27:09.419Z,43.30
2023-02-07T08:29:36.176Z,38.87
2023-02-07T08:32:04.442Z,39.13
2023-02-07T08:34:37.343Z,38.30
2023-02-07T08:37:06.284Z,35.47
2023-02-07T08:39:34.989Z,26.17
2023-02-07T08:42:02.189Z,42.03
2023-02-07T08:44:29.118Z,39.17
2023-02-07T08:46:55.848Z,26.53
2023-02-07T08:49:22.905Z,37.43
2023-02-07T08:51:49.745Z,34.73
2023-02-07T08:54:16.456Z,42.43
2023-02-07T08:59:09.748Z,35.43
2023-02-07T09:01:36.833Z,36.40
2023-02-07T09:04:03.711Z,35.57
2023-02-07T09:06:30.541Z,39.90
2023-02-07T09:08:57.865Z,38.20
2023-02-07T09:11:25.701Z,26.70
2023-02-07T09:13:52.759Z,32.87
2023-02-07T09:16:19.568Z,42.37
2023-02-07T09:18:46.454Z,23.13
2023-02-07T09:21:13.167Z,37.23
2023-02-07T09:23:39.945Z,31.50
2023-02-07T09:26:08.572Z,36.13
2023-02-07T09:28:36.401Z,42.85
2023-02-07T09:31:09.025Z,30.92
2023-02-07T09:33:35.958Z,41.53
2023-02-07T09:36:05.718Z,30.58
2023-02-07T09:38:33.010Z,35.72
2023-02-07T09:41:00.154Z,61.30
2023-02-07T09:43:45.091Z,31.70
2023-02-07T09:46:19.819Z,31.23
2023-02-07T09:48:58.673Z,31.02
2023-02-07T09:51:26.006Z,28.83
2023-02-07T09:53:59.673Z,25.95
2023-02-07T09:56:29.910Z,32.47
2023-02-07T09:59:25.132Z,27.58
2023-02-07T10:02:01.511Z,27.83
2023-02-07T10:04:35.446Z,26.63
2023-02-07T10:07:07.732Z,28.33
2023-02-07T10:09:39.631Z,23.58
2023-02-07T10:12:38.153Z,31.20
2023-02-07T10:15:45.037Z,24.73
2023-02-07T10:18:45.078Z,24.33
2023-02-07T10:21:20.025Z,29.63
2023-02-07T10:24:02.030Z,29.52
2023-02-07T10:26:45.032Z,33.97
2023-02-07T10:29:27.636Z,27.50
2023-02-07T10:31:59.112Z,30.05
2023-02-07T10:34:32.796Z,34.75
2023-02-07T10:37:00.167Z,30.83
2023-02-07T10:39:44.966Z,28.88
2023-02-07T10:42:16.890Z,26.50
2023-02-07T10:44:48.275Z,26.55
2023-02-07T10:47:17.581Z,29.20
2023-02-07T10:49:44.123Z,24.35
2023-02-07T10:52:45.295Z,23.15
2023-02-07T10:55:14.161Z,27.77
2023-02-07T10:57:45.953Z,30.67
2023-02-07T11:00:15.604Z,26.30
2023-02-07T11:02:48.448Z,23.50
2023-02-07T11:05:15.288Z,25.20
2023-02-07T11:07:48.229Z,24.42
2023-02-07T11:10:22.057Z,25.45
2023-02-07T11:12:53.966Z,23.50
2023-02-07T11:15:29.755Z,20.05
2023-02-07T11:17:57.681Z,22.92
2023-02-07T11:20:35.997Z,23.08
2023-02-07T11:23:08.126Z,31.38
2023-02-07T11:25:45.026Z,28.55
2023-02-07T11:28:27.679Z,22.15
2023-02-07T11:31:05.957Z,21.80
2023-02-07T11:33:37.687Z,25.67
2023-02-07T11:36:26.572Z,22.50
2023-02-07T11:38:59.473Z,22.92
2023-02-07T11:41:32.617Z,20.40
2023-02-07T11:44:02.043Z,21.80
2023-02-07T11:46:37.867Z,26.17
2023-02-07T11:49:09.312Z,24.95
2023-02-07T11:51:36.817Z,21.80
2023-02-07T11:54:06.559Z,21.83
2023-02-07T11:56:37.410Z,29.20
2023-02-07T11:59:15.641Z,25.45
2023-02-07T12:01:45.585Z,21.42
2023-02-07T12:04:34.102Z,22.08
2023-02-07T12:07:13.737Z,20.88
2023-02-07T12:09:44.066Z,25.55
2023-02-07T12:12:45.190Z,26.13
2023-02-07T12:15:45.108Z,18.35
2023-02-07T12:18:35.610Z,30.30
2023-02-07T12:21:16.020Z,21.45
2023-02-07T12:23:45.450Z,20.83
2023-02-07T12:26:34.000Z,21.67
2023-02-07T12:29:13.254Z,18.75
2023-02-07T12:31:45.279Z,23.65
2023-02-07T12:34:23.184Z,21.45
2023-02-07T12:36:59.218Z,19.88
2023-02-07T12:39:38.454Z,19.75
2023-02-07T12:42:30.092Z,22.02
2023-02-07T12:45:00.698Z,24.98
2023-02-07T12:47:45.101Z,24.65
2023-02-07T12:53:21.750Z,20.30
2023-02-07T12:56:04.871Z,31.50
2023-02-07T12:58:45.337Z,28.35
2023-02-07T13:01:27.601Z,20.92
2023-02-07T13:04:10.501Z,19.27
2023-02-07T13:06:46.167Z,27.23
2023-02-07T13:09:30.280Z,26.67
2023-02-07T13:12:15.334Z,19.73
2023-02-07T13:14:45.181Z,39.22
2023-02-07T13:17:45.372Z,21.80
2023-02-07T13:20:30.221Z,31.95
2023-02-07T13:23:03.287Z,23.05
2023-02-07T13:25:39.515Z,18.80
2023-02-07T13:28:15.024Z,17.60
2023-02-07T13:30:42.334Z,18.27
2023-02-07T13:33:45.298Z,17.40
2023-02-07T13:39:45.347Z,22.92
2023-02-07T13:42:19.958Z,32.90
2023-02-07T13:45:07.179Z,16.58
2023-02-07T13:47:45.075Z,18.40
2023-02-07T13:50:27.814Z,21.02
2023-02-07T13:53:40.690Z,28.90
2023-02-07T13:56:34.378Z,42.28
2023-02-07T13:59:20.915Z,16.48
2023-02-07T14:01:52.097Z,14.90
2023-02-07T14:04:21.128Z,35.78
2023-02-07T14:06:54.031Z,25.98
2023-02-07T14:09:50.034Z,17.85
2023-02-07T14:12:22.175Z,17.80
2023-02-07T14:15:01.822Z,18.10
2023-02-07T14:17:29.286Z,22.50
2023-02-07T14:20:00.700Z,15.95
2023-02-07T14:22:31.477Z,16.77
2023-02-07T14:25:07.763Z,14.13
2023-02-07T14:27:44.234Z,12.90
2023-02-07T14:30:48.576Z,14.93
2023-02-07T14:33:41.528Z,15.75
2023-02-07T14:36:15.312Z,19.50
2023-02-07T14:38:48.026Z,19.25
2023-02-07T14:41:20.760Z,15.73
2023-02-07T14:44:08.050Z,16.48
2023-02-07T14:49:21.993Z,15.23
2023-02-07T14:51:51.086Z,18.35
2023-02-07T14:54:30.213Z,14.85
2023-02-07T14:57:18.450Z,17.33
2023-02-07T15:00:02.268Z,15.05
2023-02-07T15:02:45.359Z,16.10
2023-02-07T15:05:30.191Z,17.02
2023-02-07T15:08:03.129Z,16.42
2023-02-07T15:10:42.461Z,16.63
2023-02-07T15:13:32.853Z,15.48
2023-02-07T15:16:08.958Z,14.85
2023-02-07T15:21:23.071Z,15.60
2023-02-07T15:24:33.070Z,21.65
2023-02-07T15:27:10.751Z,16.95
2023-02-07T15:29:38.477Z,20.92
2023-02-07T15:32:50.725Z,21.98
2023-02-07T15:35:24.820Z,15.75
2023-02-07T15:37:54.332Z,13.93
2023-02-07T15:40:27.848Z,15.48
2023-02-07T15:42:57.264Z,15.80
2023-02-07T15:45:29.946Z,16.42
2023-02-07T15:48:03.536Z,18.67
2023-02-07T15:50:31.383Z,18.13
2023-02-07T15:53:03.923Z,15.80
2023-02-07T15:55:47.348Z,18.77
2023-02-07T15:58:27.789Z,17.48
2023-02-07T16:01:01.828Z,18.42
2023-02-07T16:03:34.706Z,19.98
2023-02-07T16:06:18.446Z,17.88
2023-02-07T16:08:46.527Z,17.20
2023-02-07T16:11:20.739Z,15.48
2023-02-07T16:13:53.501Z,17.20
2023-02-07T16:16:26.556Z,17.40
2023-02-07T16:19:26.213Z,17.00
2023-02-07T16:22:03.364Z,19.45
2023-02-07T16:24:35.103Z,14.98
2023-02-07T16:27:03.280Z,17.20
2023-02-07T16:29:30.117Z,21.35
2023-02-07T16:31:57.364Z,18.77
2023-02-07T16:34:24.827Z,21.00
2023-02-07T16:36:54.283Z,17.85
2023-02-07T16:39:23.534Z,16.95
2023-02-07T16:41:55.255Z,17.00
2023-02-07T16:44:26.557Z,18.63
2023-02-07T16:46:53.980Z,15.27
2023-02-07T16:49:24.078Z,20.42
2023-02-07T16:51:51.994Z,15.50
2023-02-07T16:54:19.061Z,16.33
2023-02-07T16:56:48.798Z,17.83
2023-02-07T16:59:18.953Z,18.57
2023-02-07T17:01:46.682Z,18.02
2023-02-07T17:04:16.722Z,16.80
2023-02-07T17:06:45.550Z,22.80
2023-02-07T17:09:26.563Z,14.60
2023-02-07T17:11:54.808Z,14.90
2023-02-07T17:14:22.537Z,21.35
2023-02-07T17:16:50.338Z,22.40
2023-02-07T17:19:23.114Z,19.98
2023-02-07T17:21:51.937Z,17.05
2023-02-07T17:24:19.461Z,15.57
2023-02-07T17:26:57.180Z,14.52
2023-02-07T17:29:24.403Z,14.55
2023-02-07T17:31:51.886Z,16.02
2023-02-07T17:34:21.728Z,15.40
2023-02-07T17:36:53.374Z,12.57
2023-02-07T17:39:20.488Z,19.07
2023-02-07T17:41:47.939Z,26.02
2023-02-07T17:44:14.675Z,25.80
2023-02-07T17:46:41.433Z,34.30
2023-02-07T17:49:15.550Z,30.13
2023-02-07T17:54:09.992Z,36.10
2023-02-07T17:56:36.757Z,32.90
2023-02-07T17:59:06.596Z,35.90
2023-02-07T18:01:35.581Z,29.38
2023-02-07T18:04:02.822Z,32.37
2023-02-07T18:06:30.612Z,34.73
2023-02-07T18:08:59.460Z,34.10
2023-02-07T18:11:30.607Z,37.23
2023-02-07T18:14:02.566Z,33.43
2023-02-07T18:16:29.471Z,32.20
2023-02-07T18:18:58.279Z,40.40
2023-02-07T18:21:28.682Z,34.70
2023-02-07T18:23:57.066Z,37.33
2023-02-07T18:26:26.626Z,40.17
2023-02-07T18:28:53.813Z,39.00
2023-02-07T18:31:24.319Z,42.30
2023-02-07T18:33:53.173Z,40.73
2023-02-07T18:36:22.451Z,38.47
2023-02-07T18:39:00.474Z,43.90
2023-02-07T18:41:27.312Z,43.50
2023-02-07T18:44:00.273Z,46.73
2023-02-07T18:46:28.036Z,39.83
2023-02-07T18:48:56.673Z,36.70
2023-02-07T18:51:24.378Z,39.27
2023-02-07T18:53:52.076Z,45.30
2023-02-07T18:56:26.820Z,29.27
2023-02-07T18:58:56.863Z,53.33
2023-02-07T19:01:30.671Z,43.17
2023-02-07T19:04:01.838Z,48.03
2023-02-07T19:06:32.817Z,47.97
2023-02-07T19:09:00.316Z,49.97
2023-02-07T19:11:27.528Z,49.70
2023-02-07T19:13:55.255Z,39.63
2023-02-07T19:16:24.803Z,41.67
2023-02-07T19:18:51.778Z,38.27
2023-02-07T19:21:24.051Z,46.23
2023-02-07T19:23:51.429Z,37.03
2023-02-07T19:26:18.207Z,42.93
2023-02-07T19:28:48.068Z,43.77
2023-02-07T19:31:18.285Z,37.77
2023-02-07T19:33:48.380Z,34.60
2023-02-07T19:36:16.798Z,33.30
2023-02-07T19:38:45.424Z,35.93
2023-02-07T19:41:12.191Z,40.13
2023-02-07T19:43:39.796Z,30.50
2023-02-07T19:46:06.591Z,36.37
2023-02-07T19:48:34.204Z,35.60
2023-02-07T19:51:06.648Z,41.53
2023-02-07T19:53:33.847Z,37.40
2023-02-07T19:56:05.718Z,34.37
2023-02-07T19:58:34.083Z,34.73
2023-02-07T20:01:01.107Z,31.27
2023-02-07T20:03:29.496Z,36.83
2023-02-07T20:06:00.668Z,36.70
2023-02-07T20:08:28.301Z,39.07
2023-02-07T20:10:55.110Z,41.13
2023-02-07T20:13:22.075Z,36.73
2023-02-07T20:15:52.568Z,40.67
2023-02-07T20:18:19.500Z,37.70
2023-02-07T20:20:48.196Z,42.13
2023-02-07T20:23:15.499Z,37.60
2023-02-07T20:25:42.484Z,36.67
2023-02-07T20:28:09.380Z,36.57
2023-02-07T20:30:36.598Z,39.27
2023-02-07T20:33:03.723Z,36.83
2023-02-07T20:35:30.550Z,40.03
2023-02-07T20:37:57.283Z,37.20
2023-02-07T20:40:30.448Z,37.10
2023-02-07T20:43:00.648Z,40.13
2023-02-07T20:45:28.745Z,38.57
2023-02-07T20:47:55.459Z,40.53
2023-02-07T20:50:22.455Z,37.23
2023-02-07T20:52:49.192Z,36.83
2023-02-07T20:55:19.726Z,37.20
2023-02-07T20:57:46.421Z,42.63
2023-02-07T21:00:14.131Z,41.40
2023-02-07T21:02:40.817Z,38.10
2023-02-07T21:05:07.807Z,41.23
2023-02-07T21:07:34.560Z,43.57
2023-02-07T21:10:01.528Z,41.47
2023-02-07T21:12:28.550Z,37.77
2023-02-07T21:14:55.495Z,37.77
2023-02-07T21:17:22.389Z,40.90
2023-02-07T21:19:49.176Z,39.83
2023-02-07T21:22:15.939Z,38.87
2023-02-07T21:24:43.738Z,40.60
2023-02-07T21:27:09.719Z,40.43
2023-02-07T21:29:42.678Z,34.37
2023-02-07T21:32:09.388Z,40.67
2023-02-07T21:34:39.770Z,37.57
2023-02-07T21:37:07.044Z,44.13
2023-02-07T21:39:33.948Z,39.17
2023-02-07T21:42:00.628Z,37.80
2023-02-07T21:44:32.359Z,39.83
2023-02-07T21:46:59.352Z,37.07
2023-02-07T21:49:26.132Z,32.43
2023-02-07T21:51:54.094Z,44.43
2023-02-07T21:54:21.536Z,37.13
2023-02-07T21:56:50.392Z,41.90
2023-02-07T21:59:22.924Z,41.87
2023-02-07T22:01:50.067Z,40.17
2023-02-07T22:04:26.920Z,47.50
2023-02-07T22:06:53.849Z,41.70
2023-02-07T22:09:24.974Z,36.67
2023-02-07T22:11:54.969Z,41.27
2023-02-07T22:14:22.155Z,42.87
2023-02-07T22:16:53.498Z,42.03
2023-02-07T22:19:22.814Z,44.30
2023-02-07T22:21:59.785Z,41.13
2023-02-07T22:24:26.934Z,35.67
2023-02-07T22:26:53.844Z,37.73
2023-02-07T22:29:20.663Z,42.10
2023-02-07T22:31:48.054Z,39.30
2023-02-07T22:34:16.046Z,37.57
2023-02-07T22:36:48.728Z,37.27
2023-02-07T22:39:18.071Z,42.23
2023-02-07T22:41:45.067Z,39.90
2023-02-07T22:44:11.814Z,40.53
2023-02-07T22:46:38.753Z,41.43
2023-02-07T22:49:05.740Z,45.77
2023-02-07T22:51:36.012Z,32.30
2023-02-07T22:54:06.887Z,36.50
2023-02-07T22:56:36.357Z,31.87
2023-02-07T22:59:03.257Z,33.70
2023-02-07T23:01:34.575Z,40.63
2023-02-07T23:04:06.855Z,42.67
2023-02-07T23:06:37.083Z,38.07
2023-02-07T23:09:05.519Z,39.43
2023-02-07T23:11:32.979Z,49.50
2023-02-07T23:14:03.178Z,46.13
2023-02-07T23:16:41.431Z,35.13
2023-02-07T23:19:12.424Z,39.70
2023-02-07T23:21:39.496Z,37.53
2023-02-07T23:24:06.568Z,38.83
2023-02-07T23:26:34.095Z,38.00
2023-02-07T23:29:01.009Z,37.93
2023-02-07T23:31:27.860Z,40.30
2023-02-07T23:33:54.704Z,44.87
2023-02-07T23:36:22.143Z,41.03
2023-02-07T23:38:52.586Z,35.97
2023-02-07T23:41:19.658Z,44.87
2023-02-07T23:43:47.271Z,39.17
2023-02-07T23:46:16.161Z,43.27
2023-02-07T23:48:43.045Z,41.30
2023-02-07T23:51:14.419Z,38.40
2023-02-07T23:56:16.637Z,41.57
